createdAt,value
2023-04-28T00:00:04.714Z,5.82
2023-04-28T00:02:54.264Z,5.80
2023-04-28T00:05:23.566Z,5.77
2023-04-28T00:07:51.818Z,5.76
2023-04-28T00:10:19.724Z,5.73
2023-04-28T00:12:47.572Z,5.69
2023-04-28T00:15:16.179Z,5.64
2023-04-28T00:17:44.402Z,5.67
2023-04-28T00:20:12.626Z,5.71
2023-04-28T00:22:40.743Z,5.69
2023-04-28T00:25:09.244Z,5.67
2023-04-28T00:27:37.069Z,5.68
2023-04-28T00:30:05.215Z,5.72
2023-04-28T00:32:33.323Z,5.76
2023-04-28T00:35:01.201Z,5.79
2023-04-28T00:37:29.027Z,5.80
2023-04-28T00:39:56.913Z,5.80
2023-04-28T00:42:25.452Z,5.80
2023-04-28T00:44:53.250Z,5.80
2023-04-28T00:47:22.695Z,5.78
2023-04-28T00:49:53.209Z,5.77
2023-04-28T00:52:20.950Z,5.76
2023-04-28T00:54:49.570Z,5.75
2023-04-28T00:57:17.949Z,5.72
2023-04-28T00:59:45.898Z,5.71
2023-04-28T01:02:17.525Z,5.68
2023-04-28T01:04:46.192Z,5.64
2023-04-28T01:07:14.491Z,5.60
2023-04-28T01:09:44.393Z,5.55
2023-04-28T01:12:13.727Z,5.51
2023-04-28T01:14:48.929Z,5.45
2023-04-28T01:17:17.903Z,5.39
2023-04-28T01:19:45.859Z,5.35
2023-04-28T01:22:16.156Z,5.32
2023-04-28T01:24:45.035Z,5.30
2023-04-28T01:27:14.144Z,5.27
2023-04-28T01:29:42.861Z,5.26
2023-04-28T01:32:11.212Z,5.24
2023-04-28T01:34:41.206Z,5.28
2023-04-28T01:37:09.620Z,5.28
2023-04-28T01:39:38.364Z,5.25
2023-04-28T01:42:06.554Z,5.21
2023-04-28T01:44:35.163Z,5.15
2023-04-28T01:47:03.247Z,5.09
2023-04-28T01:49:31.252Z,5.06
2023-04-28T01:51:59.081Z,5.03
2023-04-28T01:54:27.547Z,5.03
2023-04-28T01:56:56.264Z,5.05
2023-04-28T01:59:24.502Z,5.05
2023-04-28T02:01:52.761Z,5.02
2023-04-28T02:04:20.856Z,4.98
2023-04-28T02:06:48.664Z,4.94
2023-04-28T02:09:17.319Z,4.89
2023-04-28T02:11:45.416Z,4.84
2023-04-28T02:14:13.232Z,4.81
2023-04-28T02:16:41.462Z,4.80
2023-04-28T02:19:09.559Z,4.78
2023-04-28T02:21:37.331Z,4.75
2023-04-28T02:24:05.804Z,4.72
2023-04-28T02:26:34.032Z,4.68
2023-04-28T02:29:04.305Z,4.62
2023-04-28T02:31:34.290Z,4.56
2023-04-28T02:34:02.840Z,4.52
2023-04-28T02:36:31.932Z,4.52
2023-04-28T02:39:02.518Z,4.54
2023-04-28T02:41:31.250Z,4.52
2023-04-28T02:43:58.989Z,4.50
2023-04-28T02:46:26.986Z,4.49
2023-04-28T02:48:54.882Z,4.48
2023-04-28T02:51:22.800Z,4.47
2023-04-28T02:53:51.202Z,4.48
2023-04-28T02:56:19.293Z,4.47
2023-04-28T02:58:47.243Z,4.46
2023-04-28T03:01:15.318Z,4.43
2023-04-28T03:03:43.362Z,4.38
2023-04-28T03:06:11.721Z,4.35
2023-04-28T03:08:39.450Z,4.31
2023-04-28T03:11:07.199Z,4.29
2023-04-28T03:13:36.420Z,4.25
2023-04-28T03:16:06.078Z,4.21
2023-04-28T03:18:34.118Z,4.19
2023-04-28T03:21:02.069Z,4.18
2023-04-28T03:23:29.916Z,4.16
2023-04-28T03:26:00.622Z,4.13
2023-04-28T03:28:29.734Z,4.11
2023-04-28T03:31:00.136Z,4.08
2023-04-28T03:33:28.124Z,4.04
2023-04-28T03:35:56.792Z,4.00
2023-04-28T03:38:24.860Z,3.99
2023-04-28T03:40:53.210Z,4.00
2023-04-28T03:43:40.197Z,4.01
2023-04-28T03:46:26.121Z,4.00
2023-04-28T03:48:55.173Z,4.01
2023-04-28T03:51:23.101Z,4.01
2023-04-28T03:53:51.105Z,4.01
2023-04-28T03:56:19.181Z,4.01
2023-04-28T03:58:47.017Z,4.07
2023-04-28T04:01:14.839Z,4.12
2023-04-28T04:03:43.014Z,4.17
2023-04-28T04:06:11.104Z,4.21
2023-04-28T04:08:39.529Z,4.26
2023-04-28T04:11:08.184Z,4.29
2023-04-28T04:13:36.740Z,4.29
2023-04-28T04:16:07.506Z,4.29
2023-04-28T04:18:36.572Z,4.28
2023-04-28T04:21:16.111Z,4.30
2023-04-28T04:23:44.069Z,4.35
2023-04-28T04:26:13.294Z,4.42
2023-04-28T04:28:41.312Z,4.51
2023-04-28T04:31:09.876Z,4.62
2023-04-28T04:33:38.071Z,4.76
2023-04-28T04:36:06.812Z,4.96
2023-04-28T04:38:34.857Z,5.21
2023-04-28T04:41:11.228Z,5.46
2023-04-28T04:43:39.222Z,6.02
2023-04-28T04:46:07.439Z,6.40
2023-04-28T04:48:38.283Z,6.63
2023-04-28T04:51:07.631Z,6.76
2023-04-28T04:53:36.255Z,6.87
2023-04-28T04:56:04.230Z,7.00
2023-04-28T04:58:33.014Z,7.15
2023-04-28T05:01:11.407Z,7.34
2023-04-28T05:03:40.007Z,7.46
2023-04-28T05:06:07.999Z,7.57
2023-04-28T05:08:45.800Z,7.73
2023-04-28T05:11:14.249Z,7.98
2023-04-28T05:13:42.768Z,8.20
2023-04-28T05:16:11.001Z,8.40
2023-04-28T05:19:00.691Z,8.53
2023-04-28T05:21:28.719Z,8.60
2023-04-28T05:23:57.530Z,8.67
2023-04-28T05:26:25.490Z,8.61
2023-04-28T05:28:56.281Z,8.52
2023-04-28T05:31:24.206Z,8.54
2023-04-28T05:33:53.089Z,8.62
2023-04-28T05:36:21.130Z,8.83
2023-04-28T05:38:49.302Z,9.18
2023-04-28T05:41:17.621Z,9.42
2023-04-28T05:43:46.580Z,9.63
2023-04-28T05:46:28.528Z,9.78
2023-04-28T05:48:59.872Z,9.83
2023-04-28T05:51:30.029Z,9.90
2023-04-28T05:53:58.251Z,9.96
2023-04-28T05:56:27.309Z,10.08
2023-04-28T05:58:56.106Z,10.25
2023-04-28T06:01:23.986Z,10.36
2023-04-28T06:03:54.151Z,10.43
2023-04-28T06:06:22.728Z,10.54
2023-04-28T06:08:50.808Z,10.66
2023-04-28T06:11:22.774Z,10.66
2023-04-28T06:13:51.101Z,10.66
2023-04-28T06:16:20.198Z,10.75
2023-04-28T06:18:49.884Z,10.87
2023-04-28T06:21:19.658Z,11.02
2023-04-28T06:23:47.437Z,11.16
2023-04-28T06:26:17.937Z,11.26
2023-04-28T06:28:46.410Z,11.38
2023-04-28T06:31:14.545Z,11.52
2023-04-28T06:33:42.558Z,11.65
2023-04-28T06:36:13.946Z,11.80
2023-04-28T06:38:43.514Z,11.93
2023-04-28T06:41:11.857Z,12.09
2023-04-28T06:43:41.370Z,12.26
2023-04-28T06:46:16.362Z,12.39
2023-04-28T06:48:44.383Z,12.50
2023-04-28T06:51:12.414Z,12.65
2023-04-28T06:53:40.936Z,12.73
2023-04-28T06:56:11.163Z,12.81
2023-04-28T06:58:39.911Z,12.92
2023-04-28T07:01:07.711Z,12.93
2023-04-28T07:03:36.245Z,13.00
2023-04-28T07:06:04.714Z,13.17
2023-04-28T07:08:32.795Z,13.29
2023-04-28T07:11:04.932Z,13.38
2023-04-28T07:13:33.365Z,13.43
2023-04-28T07:16:02.155Z,13.49
2023-04-28T07:18:30.062Z,13.55
2023-04-28T07:20:58.201Z,13.60
2023-04-28T07:23:25.932Z,13.64
2023-04-28T07:25:53.844Z,13.75
2023-04-28T07:28:21.878Z,13.80
2023-04-28T07:30:49.661Z,13.82
2023-04-28T07:33:17.581Z,13.90
2023-04-28T07:35:45.429Z,13.95
2023-04-28T07:38:13.643Z,14.04
2023-04-28T07:40:42.637Z,14.17
2023-04-28T07:43:10.424Z,14.36
2023-04-28T07:45:39.333Z,14.50
2023-04-28T07:48:07.786Z,14.67
2023-04-28T07:50:35.686Z,14.87
2023-04-28T07:53:03.512Z,15.08
2023-04-28T07:55:31.688Z,15.34
2023-04-28T07:57:59.787Z,15.56
2023-04-28T08:00:27.587Z,15.77
2023-04-28T08:02:56.983Z,15.98
2023-04-28T08:05:25.190Z,16.16
2023-04-28T08:07:53.595Z,16.26
2023-04-28T08:10:21.642Z,16.37
2023-04-28T08:12:49.948Z,16.45
2023-04-28T08:15:18.574Z,16.59
2023-04-28T08:17:47.040Z,16.72
2023-04-28T08:20:15.640Z,16.78
2023-04-28T08:22:44.035Z,16.75
2023-04-28T08:25:12.366Z,16.73
2023-04-28T08:27:40.365Z,16.80
2023-04-28T08:30:09.294Z,16.83
2023-04-28T08:32:37.516Z,16.84
2023-04-28T08:35:06.135Z,16.81
2023-04-28T08:37:34.582Z,16.85
2023-04-28T08:40:05.431Z,16.88
2023-04-28T08:42:35.168Z,16.88
2023-04-28T08:45:04.347Z,17.05
2023-04-28T08:47:33.401Z,17.19
2023-04-28T08:50:06.036Z,17.33
2023-04-28T08:52:35.196Z,17.34
2023-04-28T08:55:07.926Z,17.27
2023-04-28T08:57:40.690Z,17.22
2023-04-28T09:00:09.610Z,17.21
2023-04-28T09:02:38.346Z,17.12
2023-04-28T09:05:13.982Z,17.02
2023-04-28T09:07:45.418Z,16.98
2023-04-28T09:10:18.303Z,17.08
2023-04-28T09:12:47.322Z,17.03
2023-04-28T09:15:25.952Z,17.07
2023-04-28T09:17:54.059Z,17.18
2023-04-28T09:20:26.807Z,17.22
2023-04-28T09:22:56.107Z,17.31
2023-04-28T09:25:24.106Z,17.27
2023-04-28T09:27:52.595Z,17.27
2023-04-28T09:30:38.271Z,17.28
2023-04-28T09:33:08.169Z,17.20
2023-04-28T09:35:48.005Z,17.19
2023-04-28T09:38:16.693Z,17.13
2023-04-28T09:40:55.281Z,17.07
2023-04-28T09:43:33.464Z,17.00
2023-04-28T09:46:05.935Z,17.06
2023-04-28T09:48:34.942Z,17.07
2023-04-28T09:51:04.432Z,17.11
2023-04-28T09:53:33.763Z,17.19
2023-04-28T09:56:05.542Z,17.28
2023-04-28T09:58:35.642Z,17.36
2023-04-28T10:01:04.829Z,17.42
2023-04-28T10:03:32.955Z,17.51
2023-04-28T10:06:02.444Z,17.55
2023-04-28T10:08:30.338Z,17.55
2023-04-28T10:10:58.930Z,17.46
2023-04-28T10:13:27.112Z,17.41
2023-04-28T10:15:55.846Z,17.42
2023-04-28T10:18:25.163Z,17.42
2023-04-28T10:20:58.594Z,17.46
2023-04-28T10:23:38.645Z,17.57
2023-04-28T10:26:11.372Z,17.62
2023-04-28T10:28:45.092Z,17.60
2023-04-28T10:31:14.479Z,17.67
2023-04-28T10:33:43.019Z,17.73
2023-04-28T10:36:11.185Z,17.80
2023-04-28T10:39:03.325Z,17.88
2023-04-28T10:41:34.468Z,17.94
2023-04-28T10:44:22.426Z,17.98
2023-04-28T10:46:59.520Z,18.04
2023-04-28T10:49:46.327Z,18.09
2023-04-28T10:52:32.789Z,18.15
2023-04-28T10:55:22.486Z,18.14
2023-04-28T10:58:09.867Z,18.14
2023-04-28T11:00:38.224Z,18.07
2023-04-28T11:03:07.112Z,17.97
2023-04-28T11:05:36.041Z,17.93
2023-04-28T11:08:19.330Z,17.87
2023-04-28T11:11:06.034Z,17.88
2023-04-28T11:13:34.875Z,17.90
2023-04-28T11:16:09.388Z,17.97
2023-04-28T11:18:55.692Z,17.97
2023-04-28T11:21:24.603Z,17.96
2023-04-28T11:23:52.639Z,17.97
2023-04-28T11:26:21.157Z,18.11
2023-04-28T11:28:50.871Z,18.28
2023-04-28T11:31:20.993Z,18.28
2023-04-28T11:34:05.217Z,18.33
2023-04-28T11:36:37.752Z,18.43
2023-04-28T11:39:08.215Z,18.57
2023-04-28T11:41:37.314Z,18.64
2023-04-28T11:44:15.308Z,18.58
2023-04-28T11:46:50.681Z,18.52
2023-04-28T11:49:22.978Z,18.48
2023-04-28T11:51:52.034Z,18.45
2023-04-28T11:54:29.285Z,18.39
2023-04-28T11:56:57.916Z,18.44
2023-04-28T11:59:27.899Z,18.46
2023-04-28T12:01:59.644Z,18.41
2023-04-28T12:04:32.386Z,18.38
2023-04-28T12:07:04.792Z,18.45
2023-04-28T12:09:36.501Z,18.49
2023-04-28T12:12:05.316Z,18.58
2023-04-28T12:14:53.479Z,18.63
2023-04-28T12:17:28.617Z,18.78
2023-04-28T12:19:58.420Z,18.96
2023-04-28T12:22:26.692Z,19.08
2023-04-28T12:25:03.711Z,19.12
2023-04-28T12:27:32.344Z,19.07
2023-04-28T12:30:00.660Z,19.12
2023-04-28T12:32:39.397Z,19.27
2023-04-28T12:35:08.143Z,19.32
2023-04-28T12:37:36.648Z,19.30
2023-04-28T12:40:05.387Z,19.31
2023-04-28T12:42:34.077Z,19.32
2023-04-28T12:45:02.092Z,19.32
2023-04-28T12:47:30.412Z,19.26
2023-04-28T12:49:58.192Z,19.32
2023-04-28T12:52:26.186Z,19.38
2023-04-28T12:54:54.117Z,19.47
2023-04-28T12:57:22.409Z,19.58
2023-04-28T12:59:52.506Z,19.75
2023-04-28T13:02:21.469Z,20.01
2023-04-28T13:04:52.434Z,20.22
2023-04-28T13:07:20.710Z,20.25
2023-04-28T13:09:53.177Z,20.06
2023-04-28T13:12:26.858Z,19.93
2023-04-28T13:14:55.174Z,19.94
2023-04-28T13:17:23.098Z,19.95
2023-04-28T13:19:51.278Z,19.91
2023-04-28T13:22:19.899Z,19.86
2023-04-28T13:24:49.798Z,19.69
2023-04-28T13:27:19.196Z,19.58
2023-04-28T13:29:50.645Z,19.59
2023-04-28T13:32:18.394Z,19.63
2023-04-28T13:34:47.000Z,19.60
2023-04-28T13:37:15.742Z,19.50
2023-04-28T13:39:43.526Z,19.45
2023-04-28T13:42:13.357Z,19.33
2023-04-28T13:44:41.324Z,19.26
2023-04-28T13:47:10.275Z,19.20
2023-04-28T13:49:40.341Z,19.23
2023-04-28T13:52:08.370Z,19.16
2023-04-28T13:54:36.351Z,19.12
2023-04-28T13:57:04.314Z,19.20
2023-04-28T13:59:32.573Z,19.16
2023-04-28T14:02:00.574Z,19.10
2023-04-28T14:04:29.187Z,19.08
2023-04-28T14:06:57.215Z,19.00
2023-04-28T14:09:25.063Z,18.94
2023-04-28T14:11:57.116Z,18.88
2023-04-28T14:14:25.529Z,18.75
2023-04-28T14:16:53.473Z,18.74
2023-04-28T14:19:21.971Z,18.75
2023-04-28T14:21:49.885Z,18.72
2023-04-28T14:24:18.838Z,18.67
2023-04-28T14:26:47.777Z,18.69
2023-04-28T14:29:16.372Z,18.74
2023-04-28T14:31:48.042Z,18.69
2023-04-28T14:34:16.858Z,18.60
2023-04-28T14:36:45.184Z,18.50
2023-04-28T14:39:13.566Z,18.49
2023-04-28T14:41:41.572Z,18.47
2023-04-28T14:44:09.624Z,18.50
2023-04-28T14:46:38.189Z,18.43
2023-04-28T14:49:06.305Z,18.38
2023-04-28T14:51:34.068Z,18.29
2023-04-28T14:54:02.465Z,18.21
2023-04-28T14:56:32.137Z,18.16
2023-04-28T14:59:01.398Z,18.22
2023-04-28T15:01:30.633Z,18.29
2023-04-28T15:03:58.712Z,18.28
2023-04-28T15:06:27.284Z,18.23
2023-04-28T15:08:55.130Z,18.19
2023-04-28T15:11:23.342Z,18.16
2023-04-28T15:13:51.679Z,18.11
2023-04-28T15:16:20.213Z,18.08
2023-04-28T15:18:48.544Z,17.99
2023-04-28T15:21:16.512Z,17.87
2023-04-28T15:23:44.553Z,17.77
2023-04-28T15:26:12.531Z,17.68
2023-04-28T15:28:40.673Z,17.61
2023-04-28T15:31:08.615Z,17.56
2023-04-28T15:33:36.871Z,17.49
2023-04-28T15:36:05.203Z,17.44
2023-04-28T15:38:34.080Z,17.42
2023-04-28T15:41:02.819Z,17.41
2023-04-28T15:43:30.829Z,17.46
2023-04-28T15:45:59.311Z,17.51
2023-04-28T15:48:27.969Z,17.48
2023-04-28T15:50:56.092Z,17.43
2023-04-28T15:53:24.854Z,17.44
2023-04-28T15:55:53.135Z,17.42
2023-04-28T15:58:21.011Z,17.33
2023-04-28T16:00:49.309Z,17.22
2023-04-28T16:03:17.659Z,17.16
2023-04-28T16:05:46.674Z,17.16
2023-04-28T16:08:15.073Z,17.06
2023-04-28T16:10:43.077Z,16.96
2023-04-28T16:13:12.288Z,16.89
2023-04-28T16:15:41.897Z,16.85
2023-04-28T16:18:10.142Z,16.81
2023-04-28T16:20:38.300Z,16.74
2023-04-28T16:23:06.368Z,16.66
2023-04-28T16:25:36.616Z,16.60
2023-04-28T16:28:04.656Z,16.54
2023-04-28T16:30:34.155Z,16.45
2023-04-28T16:33:02.189Z,16.38
2023-04-28T16:35:30.462Z,16.33
2023-04-28T16:37:58.241Z,16.27
2023-04-28T16:40:26.624Z,16.24
2023-04-28T16:42:54.717Z,16.19
2023-04-28T16:45:23.676Z,16.11
2023-04-28T16:47:51.782Z,16.02
2023-04-28T16:50:19.526Z,15.93
2023-04-28T16:52:48.602Z,15.83
2023-04-28T16:55:18.204Z,15.73
2023-04-28T16:57:46.440Z,15.66
2023-04-28T17:00:15.419Z,15.63
2023-04-28T17:02:43.254Z,15.56
2023-04-28T17:05:11.477Z,15.47
2023-04-28T17:07:39.475Z,15.40
2023-04-28T17:10:07.561Z,15.31
2023-04-28T17:12:35.710Z,15.22
2023-04-28T17:15:04.191Z,15.13
2023-04-28T17:17:33.829Z,15.04
2023-04-28T17:20:02.431Z,14.98
2023-04-28T17:22:31.501Z,14.93
2023-04-28T17:24:59.340Z,14.87
2023-04-28T17:27:27.159Z,14.82
2023-04-28T17:29:55.225Z,14.76
2023-04-28T17:32:23.226Z,14.68
2023-04-28T17:34:51.534Z,14.62
2023-04-28T17:37:19.802Z,14.58
2023-04-28T17:39:49.608Z,14.53
2023-04-28T17:42:17.704Z,14.49
2023-04-28T17:44:46.007Z,14.45
2023-04-28T17:47:15.785Z,14.39
2023-04-28T17:49:45.106Z,14.34
2023-04-28T17:52:15.678Z,14.32
2023-04-28T17:54:43.503Z,14.36
2023-04-28T17:57:11.941Z,14.32
2023-04-28T17:59:40.728Z,14.27
2023-04-28T18:02:11.574Z,14.19
2023-04-28T18:04:39.860Z,14.13
2023-04-28T18:07:07.978Z,14.06
2023-04-28T18:09:36.145Z,13.98
2023-04-28T18:12:04.996Z,13.93
2023-04-28T18:14:32.752Z,13.85
2023-04-28T18:17:01.125Z,13.74
2023-04-28T18:19:30.460Z,13.62
2023-04-28T18:21:58.275Z,13.53
2023-04-28T18:24:26.300Z,13.39
2023-04-28T18:26:54.364Z,13.23
2023-04-28T18:29:22.166Z,13.12
2023-04-28T18:31:50.248Z,13.06
2023-04-28T18:34:18.186Z,12.99
2023-04-28T18:36:46.055Z,12.91
2023-04-28T18:39:13.879Z,12.80
2023-04-28T18:41:42.419Z,12.69
2023-04-28T18:44:10.339Z,12.61
2023-04-28T18:46:38.660Z,12.54
2023-04-28T18:49:07.089Z,12.49
2023-04-28T18:51:35.811Z,12.41
2023-04-28T18:54:04.849Z,12.30
2023-04-28T18:56:34.055Z,12.25
2023-04-28T18:59:04.291Z,12.22
2023-04-28T19:01:32.551Z,12.20
2023-04-28T19:04:01.060Z,12.20
2023-04-28T19:06:29.691Z,12.18
2023-04-28T19:08:57.562Z,12.16
2023-04-28T19:11:26.246Z,12.15
2023-04-28T19:13:55.657Z,12.15
2023-04-28T19:16:23.506Z,12.13
2023-04-28T19:18:52.358Z,12.10
2023-04-28T19:21:20.377Z,12.08
2023-04-28T19:23:48.874Z,12.06
2023-04-28T19:26:17.393Z,12.05
2023-04-28T19:28:45.259Z,12.02
2023-04-28T19:31:13.092Z,11.99
2023-04-28T19:33:41.544Z,11.93
2023-04-28T19:36:10.028Z,11.86
2023-04-28T19:38:40.450Z,11.79
2023-04-28T19:41:08.457Z,11.74
2023-04-28T19:43:36.862Z,11.70
2023-04-28T19:46:05.156Z,11.67
2023-04-28T19:48:33.778Z,11.62
2023-04-28T19:51:01.667Z,11.59
2023-04-28T19:53:29.524Z,11.53
2023-04-28T19:56:01.114Z,11.47
2023-04-28T19:58:28.969Z,11.41
2023-04-28T20:00:58.643Z,11.36
2023-04-28T20:03:27.014Z,11.32
2023-04-28T20:05:54.894Z,11.29
2023-04-28T20:08:25.718Z,11.24
2023-04-28T20:10:54.993Z,11.21
2023-04-28T20:13:22.937Z,11.16
2023-04-28T20:15:51.113Z,11.09
2023-04-28T20:18:19.098Z,11.03
2023-04-28T20:20:46.958Z,10.98
2023-04-28T20:23:14.726Z,10.91
2023-04-28T20:25:42.559Z,10.85
2023-04-28T20:28:10.719Z,10.78
2023-04-28T20:30:39.697Z,10.72
2023-04-28T20:33:07.777Z,10.65
2023-04-28T20:35:38.008Z,10.61
2023-04-28T20:38:05.974Z,10.56
2023-04-28T20:40:34.577Z,10.51
2023-04-28T20:43:03.716Z,10.47
2023-04-28T20:45:32.135Z,10.43
2023-04-28T20:48:00.184Z,10.39
2023-04-28T20:50:30.849Z,10.35
2023-04-28T20:52:58.660Z,10.35
2023-04-28T20:55:26.899Z,10.36
2023-04-28T20:57:54.868Z,10.37
2023-04-28T21:00:23.409Z,10.34
2023-04-28T21:02:51.753Z,10.30
2023-04-28T21:05:20.996Z,10.26
2023-04-28T21:07:48.793Z,10.21
2023-04-28T21:10:17.142Z,10.14
2023-04-28T21:12:45.644Z,10.10
2023-04-28T21:15:13.606Z,10.07
2023-04-28T21:17:41.500Z,10.01
2023-04-28T21:20:09.482Z,9.93
2023-04-28T21:22:37.631Z,9.87
2023-04-28T21:25:07.026Z,9.81
2023-04-28T21:27:34.721Z,9.76
2023-04-28T21:30:02.798Z,9.73
2023-04-28T21:32:30.896Z,9.70
2023-04-28T21:34:58.867Z,9.67
2023-04-28T21:37:27.450Z,9.64
2023-04-28T21:39:56.703Z,9.61
2023-04-28T21:42:24.743Z,9.58
2023-04-28T21:44:52.654Z,9.56
2023-04-28T21:47:21.156Z,9.53
2023-04-28T21:49:49.443Z,9.51
2023-04-28T21:52:17.473Z,9.48
2023-04-28T21:54:45.246Z,9.46
2023-04-28T21:57:12.992Z,9.44
2023-04-28T21:59:40.777Z,9.44
2023-04-28T22:02:09.197Z,9.41
2023-04-28T22:04:39.083Z,9.39
2023-04-28T22:07:07.402Z,9.36
2023-04-28T22:09:35.327Z,9.35
2023-04-28T22:12:03.139Z,9.34
2023-04-28T22:17:02.098Z,9.32
2023-04-28T22:19:30.089Z,9.33
2023-04-28T22:21:58.082Z,9.32
2023-04-28T22:24:26.282Z,9.32
2023-04-28T22:26:54.796Z,9.31
2023-04-28T22:29:22.674Z,9.30
2023-04-28T22:31:50.510Z,9.30
2023-04-28T22:34:18.953Z,9.29
2023-04-28T22:36:47.565Z,9.29
2023-04-28T22:39:16.133Z,9.29
2023-04-28T22:41:44.125Z,9.28
2023-04-28T22:44:11.867Z,9.27
2023-04-28T22:46:40.083Z,9.28
2023-04-28T22:49:08.110Z,9.26
2023-04-28T22:51:36.648Z,9.27
2023-04-28T22:54:04.626Z,9.27
2023-04-28T22:56:32.335Z,9.26
2023-04-28T22:59:00.546Z,9.24
2023-04-28T23:01:29.526Z,9.22
2023-04-28T23:03:57.941Z,9.21
2023-04-28T23:06:28.758Z,9.20
2023-04-28T23:08:56.877Z,9.18
2023-04-28T23:11:25.739Z,9.16
2023-04-28T23:13:53.660Z,9.16
2023-04-28T23:16:21.696Z,9.15
2023-04-28T23:18:49.713Z,9.13
2023-04-28T23:21:19.066Z,9.10
2023-04-28T23:23:46.828Z,9.09
2023-04-28T23:26:15.085Z,9.07
2023-04-28T23:28:42.985Z,9.04
2023-04-28T23:31:12.442Z,9.01
2023-04-28T23:33:40.533Z,9.00
2023-04-28T23:36:09.082Z,8.99
2023-04-28T23:38:37.271Z,9.00
2023-04-28T23:41:06.909Z,9.00
2023-04-28T23:43:35.051Z,8.99
2023-04-28T23:46:03.165Z,8.99
2023-04-28T23:48:31.377Z,9.00
2023-04-28T23:50:59.270Z,9.01
2023-04-28T23:53:27.652Z,9.01
2023-04-28T23:55:55.757Z,8.99
2023-04-28T23:58:23.838Z,8.99
